Time;durP1;ratioP1;P1;durP2;ratioP2;P2;SDS_P1;SDS_P2;PMS_P1;PMS_P2;Temp;Humidity;BMP_temperature;BMP_pressure;BME280_temperature;BME280_humidity;BME280_pressure;Samples;Min_cycle;Max_cycle;Signal;HPM_P1;HPM_P2
2023/10/08 00:02:05;;;;;;;1.95;0.20;;;13.70;82.10;;;;;;5073491;28;20428;-70
2023/10/08 00:04:37;;;;;;;2.30;0.30;;;13.70;81.70;;;;;;5090103;28;20847;-71
2023/10/08 00:07:07;;;;;;;0.95;0.10;;;13.70;81.40;;;;;;5091051;28;20410;-70
2023/10/08 00:09:36;;;;;;;0.63;0.10;;;13.70;81.30;;;;;;5091463;28;20417;-70
2023/10/08 00:12:03;;;;;;;2.53;0.20;;;13.70;81.40;;;;;;5090999;28;20828;-70
2023/10/08 00:14:29;;;;;;;2.55;0.30;;;13.70;81.40;;;;;;5090075;28;20406;-70
2023/10/08 00:16:54;;;;;;;2.10;0.20;;;13.80;81.40;;;;;;5090324;28;20497;-70
2023/10/08 00:19:21;;;;;;;2.53;0.20;;;13.80;81.20;;;;;;5091247;28;20487;-71
2023/10/08 00:21:48;;;;;;;1.85;0.20;;;13.80;81.00;;;;;;5090370;28;20536;-70
2023/10/08 00:24:15;;;;;;;3.92;0.40;;;13.80;80.70;;;;;;5089816;28;20497;-70
2023/10/08 00:26:41;;;;;;;4.03;0.40;;;13.80;80.50;;;;;;5090615;28;20463;-70
2023/10/08 00:29:21;;;;;;;4.10;0.60;;;13.80;80.00;;;;;;5090737;28;20402;-70
2023/10/08 00:31:49;;;;;;;2.25;0.35;;;13.70;79.80;;;;;;5090205;28;20410;-70
2023/10/08 00:34:21;;;;;;;4.05;0.50;;;13.70;79.50;;;;;;5090840;28;20481;-70
2023/10/08 00:36:48;;;;;;;5.20;0.50;;;13.60;79.90;;;;;;5090319;28;20406;-71
2023/10/08 00:39:16;;;;;;;2.33;0.30;;;13.50;80.20;;;;;;5090081;28;20423;-70
2023/10/08 00:41:42;;;;;;;3.50;0.30;;;13.50;80.60;;;;;;5089349;28;21029;-70
2023/10/08 00:44:12;;;;;;;4.43;0.52;;;13.50;81.00;;;;;;5090594;28;20428;-70
2023/10/08 00:46:50;;;;;;;2.40;0.40;;;13.40;81.10;;;;;;5090310;28;20448;-70
2023/10/08 00:54:46;;;;;;;2.90;0.20;;;13.50;81.00;;;;;;5087719;28;20507;-70
2023/10/08 00:57:17;;;;;;;5.03;0.80;;;13.50;81.10;;;;;;5090591;28;20775;-70
2023/10/08 00:59:49;;;;;;;2.20;0.40;;;13.50;81.30;;;;;;5078066;28;21010;-71
2023/10/08 01:02:19;;;;;;;3.75;0.40;;;13.50;81.20;;;;;;5089529;28;20408;-71
2023/10/08 01:04:45;;;;;;;2.63;0.20;;;13.50;81.20;;;;;;5090471;28;20401;-71
2023/10/08 01:07:15;;;;;;;3.20;0.30;;;13.60;81.40;;;;;;5090094;28;20498;-70
2023/10/08 01:09:50;;;;;;;3.25;0.45;;;13.50;81.10;;;;;;5090602;28;20406;-70
2023/10/08 01:12:28;;;;;;;4.00;0.32;;;13.60;80.60;;;;;;5090070;28;20922;-70
2023/10/08 01:14:55;;;;;;;4.15;0.70;;;13.50;80.10;;;;;;5090042;28;20406;-70
2023/10/08 01:17:25;;;;;;;2.95;0.40;;;13.50;80.00;;;;;;5089045;28;20428;-70
2023/10/08 01:19:56;;;;;;;5.95;0.50;;;13.50;79.80;;;;;;5088328;28;20425;-70
2023/10/08 01:22:22;;;;;;;4.60;0.50;;;13.50;79.70;;;;;;5089633;28;20761;-70
2023/10/08 01:24:51;;;;;;;5.15;0.77;;;13.50;80.00;;;;;;5089874;28;20493;-70
2023/10/08 01:27:28;;;;;;;5.03;0.70;;;13.50;80.00;;;;;;5089564;28;20390;-70
2023/10/08 01:29:53;;;;;;;6.30;0.80;;;13.50;79.70;;;;;;5089516;28;20437;-70
2023/10/08 01:32:21;;;;;;;4.57;0.60;;;13.50;79.70;;;;;;5090221;28;20479;-70
2023/10/08 01:34:48;;;;;;;4.85;0.50;;;13.50;79.70;;;;;;5089308;28;20450;-70
2023/10/08 01:37:17;;;;;;;4.45;0.50;;;13.50;79.70;;;;;;5088491;28;20406;-70
2023/10/08 01:39:49;;;;;;;5.30;0.70;;;13.50;79.80;;;;;;5084907;28;20890;-70
2023/10/08 01:42:20;;;;;;;7.03;0.45;;;13.50;79.90;;;;;;5080442;28;20412;-70
2023/10/08 01:44:50;;;;;;;5.70;0.45;;;13.50;80.00;;;;;;5089546;28;20452;-70
2023/10/08 01:47:16;;;;;;;4.03;0.32;;;13.50;80.10;;;;;;5089858;28;20409;-70
2023/10/08 01:49:46;;;;;;;9.25;1.00;;;13.50;80.20;;;;;;5089251;28;20501;-70
2023/10/08 01:52:21;;;;;;;5.63;0.88;;;13.50;80.30;;;;;;5089098;28;20417;-70
2023/10/08 01:54:48;;;;;;;7.60;1.00;;;13.50;80.30;;;;;;5088907;28;20402;-69
2023/10/08 01:57:14;;;;;;;5.18;0.60;;;13.50;80.40;;;;;;5088972;28;20798;-70
2023/10/08 01:59:40;;;;;;;4.18;0.68;;;13.50;80.60;;;;;;5088906;28;20441;-70
2023/10/08 02:02:06;;;;;;;8.77;1.00;;;13.50;80.80;;;;;;5088964;28;20406;-70
2023/10/08 02:04:35;;;;;;;6.22;0.63;;;13.60;81.10;;;;;;5088520;28;20402;-70
2023/10/08 02:07:08;;;;;;;5.32;0.90;;;13.60;81.20;;;;;;5088530;28;20402;-70
2023/10/08 02:09:34;;;;;;;6.10;0.70;;;13.60;81.30;;;;;;5078070;28;20390;-70
2023/10/08 02:12:00;;;;;;;5.70;0.60;;;13.60;81.20;;;;;;5088448;28;20906;-70
2023/10/08 02:14:30;;;;;;;5.80;0.75;;;13.60;81.00;;;;;;5078535;28;20402;-70
2023/10/08 02:16:56;;;;;;;7.40;0.68;;;13.60;81.10;;;;;;5088832;28;20459;-70
2023/10/08 02:19:26;;;;;;;6.17;0.80;;;13.60;81.30;;;;;;5088535;28;20398;-70
2023/10/08 02:21:57;;;;;;;5.60;0.68;;;13.50;81.10;;;;;;5088862;28;20800;-70
2023/10/08 02:24:24;;;;;;;7.07;0.90;;;13.60;81.30;;;;;;5088276;28;20406;-70
2023/10/08 02:26:54;;;;;;;5.60;0.70;;;13.60;81.30;;;;;;5088148;28;20911;-70
2023/10/08 02:29:21;;;;;;;5.30;0.73;;;13.50;80.80;;;;;;5088719;28;20401;-70
2023/10/08 02:31:47;;;;;;;6.35;0.90;;;13.60;80.40;;;;;;5088592;28;20437;-70
2023/10/08 02:34:13;;;;;;;6.03;0.80;;;13.60;80.10;;;;;;5087637;28;20404;-70
2023/10/08 02:36:40;;;;;;;7.50;0.80;;;13.60;79.60;;;;;;5088022;28;20402;-70
2023/10/08 02:39:13;;;;;;;6.00;0.70;;;13.60;79.20;;;;;;5088856;28;20754;-70
2023/10/08 02:41:45;;;;;;;6.85;1.00;;;13.60;79.20;;;;;;5087797;28;20491;-71
2023/10/08 02:44:12;;;;;;;4.45;0.68;;;13.60;78.90;;;;;;5088419;28;20438;-70
2023/10/08 02:46:47;;;;;;;6.60;1.00;;;13.60;78.80;;;;;;5081158;28;20421;-70
2023/10/08 02:49:16;;;;;;;10.68;1.30;;;13.60;78.60;;;;;;5081819;28;21083;-71
2023/10/08 02:51:44;;;;;;;7.50;0.75;;;13.60;78.40;;;;;;5087081;28;20409;-70
2023/10/08 02:54:18;;;;;;;6.88;0.65;;;13.60;78.30;;;;;;5088384;28;20406;-70
2023/10/08 02:56:58;;;;;;;7.03;0.98;;;13.60;78.30;;;;;;5088074;28;20398;-70
2023/10/08 02:59:28;;;;;;;10.13;0.80;;;13.50;78.10;;;;;;5087967;28;20426;-70
2023/10/08 03:01:57;;;;;;;7.78;0.80;;;13.50;77.90;;;;;;5087560;28;20461;-70
2023/10/08 03:04:22;;;;;;;7.68;0.90;;;13.50;78.10;;;;;;5086690;28;20434;-70
2023/10/08 03:06:52;;;;;;;8.93;1.02;;;13.50;78.30;;;;;;5088368;28;20441;-70
2023/10/08 03:09:24;;;;;;;6.78;0.80;;;13.50;78.10;;;;;;5086817;28;20414;-70
2023/10/08 03:11:51;;;;;;;6.22;0.82;;;13.50;78.00;;;;;;5077976;28;20404;-70
2023/10/08 03:14:23;;;;;;;6.03;0.80;;;13.50;78.40;;;;;;5086324;28;20416;-70
2023/10/08 03:16:54;;;;;;;7.03;0.80;;;13.50;78.70;;;;;;5087836;28;20398;-70
2023/10/08 03:19:21;;;;;;;7.97;0.98;;;13.50;78.80;;;;;;5087832;28;20489;-70
2023/10/08 03:21:51;;;;;;;6.63;0.70;;;13.50;78.80;;;;;;5086625;28;20445;-70
2023/10/08 03:24:29;;;;;;;5.35;0.60;;;13.50;79.00;;;;;;5086585;28;20760;-71
2023/10/08 03:29:54;;;;;;;8.20;0.82;;;13.50;79.90;;;;;;5078034;28;20780;-70
2023/10/08 03:32:26;;;;;;;5.83;0.83;;;13.50;80.20;;;;;;5087797;28;20446;-71
2023/10/08 03:34:54;;;;;;;7.18;1.00;;;13.50;80.40;;;;;;5087127;28;20997;-70
2023/10/08 03:37:29;;;;;;;6.77;0.90;;;13.50;80.60;;;;;;5088017;28;20413;-70
2023/10/08 03:40:03;;;;;;;5.75;0.77;;;13.50;80.90;;;;;;5085173;28;20402;-70
2023/10/08 03:42:40;;;;;;;7.00;1.10;;;13.50;80.90;;;;;;5087607;28;20433;-70
2023/10/08 03:45:12;;;;;;;10.38;0.95;;;13.50;81.10;;;;;;5087471;28;20409;-70
2023/10/08 03:47:39;;;;;;;4.10;0.80;;;13.50;81.10;;;;;;5087942;28;20394;-70
2023/10/08 03:50:11;;;;;;;6.40;0.87;;;13.50;81.50;;;;;;5088136;28;20430;-70
2023/10/08 03:52:38;;;;;;;4.88;0.60;;;13.50;81.70;;;;;;5087428;28;20398;-70
2023/10/08 03:55:21;;;;;;;4.97;0.77;;;13.50;81.80;;;;;;5087770;28;20417;-71
2023/10/08 03:57:56;;;;;;;6.23;0.70;;;13.50;81.80;;;;;;5086062;28;20406;-71
2023/10/08 04:00:28;;;;;;;6.50;0.87;;;13.60;82.10;;;;;;5087008;28;20429;-71
2023/10/08 04:02:55;;;;;;;5.30;0.90;;;13.60;82.20;;;;;;5086736;28;20405;-71
2023/10/08 04:05:33;;;;;;;7.15;0.70;;;13.60;82.20;;;;;;5086580;28;20484;-70
2023/10/08 04:13:09;;;;;;;5.75;0.90;;;13.60;81.70;;;;;;5087658;28;20831;-70
2023/10/08 04:15:40;;;;;;;7.10;1.15;;;13.60;81.30;;;;;;5119866;28;20509;-70
2023/10/08 04:18:10;;;;;;;6.27;0.90;;;13.60;81.00;;;;;;5087215;28;20402;-70
2023/10/08 04:20:39;;;;;;;4.53;0.80;;;13.60;80.70;;;;;;5085593;28;20440;-70
2023/10/08 04:23:17;;;;;;;5.50;0.80;;;13.60;80.60;;;;;;5087191;28;20394;-71
2023/10/08 04:25:43;;;;;;;5.40;1.00;;;13.60;80.50;;;;;;5086391;28;20459;-70
2023/10/08 04:28:14;;;;;;;8.23;1.00;;;13.60;80.30;;;;;;5088832;28;20799;-70
2023/10/08 04:30:41;;;;;;;9.30;1.35;;;13.50;79.20;;;;;;5090904;28;20466;-70
2023/10/08 04:33:11;;;;;;;6.60;0.90;;;13.50;77.90;;;;;;5080489;28;20406;-70
2023/10/08 04:35:56;;;;;;;8.52;1.50;;;13.50;76.60;;;;;;5091180;28;20417;-70
2023/10/08 04:38:26;;;;;;;9.82;1.30;;;13.50;74.90;;;;;;5088110;28;20903;-70
2023/10/08 04:40:52;;;;;;;6.88;0.80;;;13.50;72.50;;;;;;5090269;28;20503;-70
2023/10/08 04:43:27;;;;;;;5.47;0.82;;;13.40;70.90;;;;;;5090440;28;20409;-70
2023/10/08 04:46:05;;;;;;;5.77;0.67;;;13.40;69.60;;;;;;5089148;28;20940;-70
2023/10/08 04:48:32;;;;;;;5.55;0.80;;;13.40;67.90;;;;;;5082090;28;20402;-70
2023/10/08 04:50:59;;;;;;;7.28;0.70;;;13.40;65.30;;;;;;5089811;28;20427;-70
2023/10/08 04:53:36;;;;;;;7.72;1.00;;;13.40;64.00;;;;;;5089503;28;20394;-70
2023/10/08 04:56:13;;;;;;;4.68;0.90;;;13.40;63.20;;;;;;5089911;28;20458;-70
2023/10/08 04:58:40;;;;;;;7.78;0.77;;;13.40;62.00;;;;;;5088532;28;20410;-70
2023/10/08 05:04:07;;;;;;;6.10;1.20;;;13.40;60.40;;;;;;5090236;28;20414;-70
2023/10/08 05:09:38;;;;;;;7.10;1.20;;;13.30;60.50;;;;;;5090026;28;20504;-70
2023/10/08 05:14:34;;;;;;;6.57;1.20;;;13.30;60.10;;;;;;5089959;28;20402;-70
2023/10/08 05:17:09;;;;;;;7.72;0.90;;;13.30;59.80;;;;;;5090088;28;20409;-70
2023/10/08 05:30:37;;;;;;;8.70;1.23;;;13.10;60.30;;;;;;5089959;28;20405;-70
2023/10/08 05:47:06;;;;;;;5.50;0.80;;;13.00;60.70;;;;;;5088419;28;20432;-70
2023/10/08 05:57:14;;;;;;;6.65;1.10;;;13.00;60.00;;;;;;5089780;28;20398;-70
2023/10/08 06:02:29;;;;;;;8.35;1.20;;;13.00;58.90;;;;;;5088083;28;20973;-70
2023/10/08 06:13:09;;;;;;;7.40;1.13;;;13.00;58.60;;;;;;5088455;28;20915;-70
2023/10/08 06:16:31;;;;;;;5.50;1.00;;;13.00;57.90;;;;;;5088515;28;20425;-70
2023/10/08 06:18:31;;;;;;;6.40;1.10;;;13.00;55.80;;;;;;5079112;28;20419;-70
2023/10/08 06:21:00;;;;;;;4.63;1.02;;;13.10;54.40;;;;;;5088200;28;20839;-70
2023/10/08 06:23:32;;;;;;;6.22;0.88;;;13.00;53.10;;;;;;5086473;28;20410;-70
2023/10/08 06:28:38;;;;;;;6.78;0.77;;;13.00;53.80;;;;;;5084991;28;20827;-71
2023/10/08 06:31:11;;;;;;;9.07;1.20;;;13.00;54.50;;;;;;5088304;28;20463;-70
2023/10/08 06:33:38;;;;;;;7.03;0.85;;;13.00;55.00;;;;;;5088092;28;20441;-70
2023/10/08 06:36:13;;;;;;;6.72;0.73;;;13.00;56.20;;;;;;5087690;28;20956;-70
2023/10/08 06:38:49;;;;;;;7.80;1.10;;;13.00;56.70;;;;;;5086977;28;20439;-70
2023/10/08 06:41:17;;;;;;;7.17;0.93;;;13.10;57.00;;;;;;5087541;28;20430;-70
2023/10/08 06:43:51;;;;;;;6.25;0.80;;;13.10;57.00;;;;;;5086742;28;20418;-70
2023/10/08 06:46:21;;;;;;;5.20;0.73;;;13.20;56.60;;;;;;5088065;28;20442;-70
2023/10/08 06:48:49;;;;;;;7.32;0.82;;;13.20;55.30;;;;;;5088410;28;20441;-70
2023/10/08 06:51:17;;;;;;;8.80;1.10;;;13.30;56.10;;;;;;5086192;28;20463;-70
2023/10/08 06:53:44;;;;;;;8.68;1.10;;;13.30;56.70;;;;;;5088102;28;20451;-70
2023/10/08 06:56:12;;;;;;;5.72;0.95;;;13.30;56.60;;;;;;5087799;28;20485;-70
2023/10/08 06:58:39;;;;;;;6.27;1.03;;;13.40;56.60;;;;;;5087707;28;20405;-70
2023/10/08 07:01:05;;;;;;;6.97;0.90;;;13.50;56.50;;;;;;5087857;28;20433;-71
2023/10/08 07:03:32;;;;;;;6.07;1.00;;;13.50;54.80;;;;;;5087735;28;20428;-71
2023/10/08 07:05:59;;;;;;;5.10;0.85;;;13.50;54.80;;;;;;5087582;28;20397;-71
2023/10/08 07:08:31;;;;;;;8.07;1.30;;;13.60;54.10;;;;;;5087330;28;20914;-71
2023/10/08 07:11:11;;;;;;;9.00;0.85;;;13.70;54.30;;;;;;5088366;28;20493;-70
2023/10/08 07:13:39;;;;;;;10.13;1.30;;;13.70;53.00;;;;;;5087715;28;20397;-71
2023/10/08 07:16:08;;;;;;;7.95;1.30;;;13.80;50.40;;;;;;5088331;28;20390;-71
2023/10/08 07:18:33;;;;;;;8.15;1.30;;;13.80;48.00;;;;;;5078108;28;21006;-70
2023/10/08 07:21:03;;;;;;;6.03;1.00;;;13.90;44.60;;;;;;5081302;28;20456;-72
2023/10/08 07:23:34;;;;;;;9.37;1.10;;;14.00;41.90;;;;;;5082813;28;20410;-71
2023/10/08 07:26:11;;;;;;;8.90;1.45;;;14.10;39.60;;;;;;5063809;28;20418;-71
2023/10/08 07:28:41;;;;;;;13.00;1.50;;;14.20;36.30;;;;;;5082460;28;20414;-71
2023/10/08 07:31:16;;;;;;;6.50;1.02;;;14.20;31.90;;;;;;5083862;28;20401;-71
2023/10/08 07:33:55;;;;;;;10.52;1.20;;;14.30;28.20;;;;;;5084129;28;20448;-72
2023/10/08 07:36:21;;;;;;;9.77;1.35;;;14.30;24.90;;;;;;5082696;28;20402;-72
2023/10/08 07:38:46;;;;;;;8.43;1.40;;;14.30;25.80;;;;;;5086610;28;20408;-72
2023/10/08 07:41:14;;;;;;;10.53;1.10;;;14.30;26.40;;;;;;5084760;28;20417;-72
2023/10/08 07:43:42;;;;;;;9.70;1.10;;;14.30;24.90;;;;;;5081566;28;20434;-72
2023/10/08 07:46:09;;;;;;;6.97;1.05;;;14.40;24.80;;;;;;5080175;28;20416;-72
2023/10/08 07:48:35;;;;;;;7.65;1.20;;;14.40;24.10;;;;;;5080343;28;20421;-72
2023/10/08 07:51:02;;;;;;;6.90;1.17;;;14.40;24.00;;;;;;5086274;28;20401;-72
2023/10/08 07:53:37;;;;;;;7.78;1.20;;;14.50;25.40;;;;;;5082781;28;20761;-72
2023/10/08 07:56:10;;;;;;;8.93;1.17;;;14.50;22.70;;;;;;5085064;28;20398;-71
2023/10/08 07:58:36;;;;;;;7.22;1.10;;;14.50;22.50;;;;;;5079933;28;20402;-71
2023/10/08 08:01:09;;;;;;;7.03;1.15;;;14.50;23.60;;;;;;5080920;28;21250;-72
2023/10/08 08:03:36;;;;;;;10.02;1.40;;;14.60;23.00;;;;;;5122491;27;20409;-72
2023/10/08 08:06:09;;;;;;;7.25;1.10;;;14.60;22.40;;;;;;5091435;28;20770;-72
2023/10/08 08:08:39;;;;;;;8.17;1.20;;;14.60;23.10;;;;;;5090995;28;20420;-72
2023/10/08 08:11:12;;;;;;;7.67;1.40;;;14.60;24.10;;;;;;5085707;28;20406;-72
2023/10/08 08:13:42;;;;;;;8.20;0.90;;;14.70;21.30;;;;;;5088790;28;20400;-71
2023/10/08 08:16:16;;;;;;;6.10;1.15;;;14.70;19.10;;;;;;5090823;28;20777;-71
2023/10/08 08:18:54;;;;;;;6.20;0.90;;;14.80;17.40;;;;;;5086920;28;20410;-72
2023/10/08 08:21:23;;;;;;;6.43;1.30;;;14.90;16.50;;;;;;5090986;28;20429;-72
2023/10/08 08:23:49;;;;;;;7.03;0.90;;;14.90;13.10;;;;;;5088656;28;20421;-72
2023/10/08 08:26:26;;;;;;;5.90;1.08;;;15.00;10.60;;;;;;5090376;28;20394;-72
2023/10/08 08:29:02;;;;;;;9.57;1.27;;;15.00;10.60;;;;;;5091477;28;20499;-72
2023/10/08 08:31:35;;;;;;;9.68;1.38;;;15.10;8.50;;;;;;5092990;28;20421;-72
2023/10/08 08:34:17;;;;;;;6.65;0.90;;;15.10;8.50;;;;;;5089931;28;20907;-73
2023/10/08 08:36:48;;;;;;;9.13;1.23;;;15.00;6.50;;;;;;5090047;28;21192;-72
2023/10/08 08:39:23;;;;;;;6.07;1.10;;;15.10;5.20;;;;;;5086897;28;20394;-72
2023/10/08 08:41:52;;;;;;;6.13;0.93;;;15.00;7.00;;;;;;5089031;28;20442;-72
2023/10/08 08:44:19;;;;;;;5.40;0.80;;;15.00;7.20;;;;;;5089630;28;21129;-72
2023/10/08 08:46:47;;;;;;;6.85;0.95;;;15.00;10.90;;;;;;5090306;28;20513;-72
2023/10/08 08:49:14;;;;;;;6.72;1.08;;;15.10;11.40;;;;;;5091326;28;20418;-72
2023/10/08 08:51:41;;;;;;;8.43;1.38;;;15.10;6.80;;;;;;5089967;28;20409;-72
2023/10/08 08:54:06;;;;;;;11.27;1.20;;;15.10;9.90;;;;;;5090514;28;20493;-72
2023/10/08 08:56:38;;;;;;;8.20;1.63;;;15.10;3.70;;;;;;5089693;28;20535;-72
2023/10/08 08:59:13;;;;;;;5.95;0.90;;;15.20;6.80;;;;;;5094661;28;20932;-71
2023/10/08 09:01:42;;;;;;;6.47;0.80;;;15.30;8.20;;;;;;5089828;28;20454;-70
2023/10/08 09:04:08;;;;;;;6.70;1.17;;;15.50;8.10;;;;;;5090204;28;20527;-70
2023/10/08 09:06:37;;;;;;;6.30;1.07;;;15.60;4.50;;;;;;5089801;28;20873;-70
2023/10/08 09:09:22;;;;;;;4.85;0.93;;;15.70;3.70;;;;;;5090513;28;20421;-70
2023/10/08 09:11:52;;;;;;;9.52;1.40;;;15.70;1.00;;;;;;5089074;28;20780;-71
2023/10/08 09:14:29;;;;;;;6.63;1.00;;;15.70;1.00;;;;;;5089217;28;20904;-70
2023/10/08 09:16:56;;;;;;;6.82;0.90;;;15.70;1.00;;;;;;5084631;28;20426;-70
2023/10/08 09:19:24;;;;;;;6.32;1.10;;;15.70;1.00;;;;;;5091272;28;20408;-70
2023/10/08 09:22:19;;;;;;;9.73;1.30;;;15.70;1.00;;;;;;5097626;28;20968;-70
2023/10/08 09:24:46;;;;;;;5.72;0.80;;;15.60;1.00;;;;;;5102988;27;20838;-71
2023/10/08 09:27:15;;;;;;;8.80;1.33;;;15.60;1.00;;;;;;5091066;28;20497;-71
2023/10/08 09:29:42;;;;;;;7.93;1.05;;;15.70;1.00;;;;;;5088330;28;20764;-71
2023/10/08 09:32:13;;;;;;;6.13;1.27;;;15.80;1.00;;;;;;5092198;28;20424;-71
2023/10/08 09:34:39;;;;;;;7.40;0.88;;;15.90;1.00;;;;;;5090736;28;20927;-71
2023/10/08 09:37:07;;;;;;;7.18;0.90;;;16.00;1.00;;;;;;5093597;28;20414;-71
2023/10/08 09:39:36;;;;;;;7.68;1.20;;;15.90;1.00;;;;;;5086320;28;20433;-71
2023/10/08 09:42:03;;;;;;;6.22;1.00;;;15.90;1.00;;;;;;5094021;28;20780;-71
2023/10/08 09:44:30;;;;;;;6.60;0.82;;;15.90;1.00;;;;;;5088929;28;20477;-71
2023/10/08 09:47:12;;;;;;;7.38;0.88;;;16.00;1.00;;;;;;5089131;28;20446;-72
2023/10/08 09:50:01;;;;;;;7.20;0.98;;;16.20;1.00;;;;;;5082746;28;20440;-72
2023/10/08 09:52:36;;;;;;;7.57;0.90;;;16.40;1.00;;;;;;5089112;28;20418;-72
2023/10/08 09:55:12;;;;;;;4.23;0.70;;;16.40;1.00;;;;;;5093933;28;20398;-72
2023/10/08 09:57:38;;;;;;;6.78;1.02;;;16.40;1.00;;;;;;5088704;28;20406;-72
2023/10/08 10:00:18;;;;;;;5.15;0.70;;;16.30;1.00;;;;;;5088884;28;20406;-72
2023/10/08 10:02:45;;;;;;;8.43;1.13;;;16.40;1.00;;;;;;5085934;28;20451;-71
2023/10/08 10:05:24;;;;;;;6.80;1.17;;;16.40;1.00;;;;;;5088594;28;20405;-69
2023/10/08 10:07:49;;;;;;;6.53;1.00;;;16.50;1.00;;;;;;5089840;28;20417;-71
2023/10/08 10:10:34;;;;;;;5.87;0.80;;;16.60;1.00;;;;;;5084899;28;20421;-70
2023/10/08 10:13:03;;;;;;;6.40;0.90;;;16.70;1.00;;;;;;5086439;28;20419;-71
2023/10/08 10:15:30;;;;;;;5.88;0.90;;;16.80;1.00;;;;;;5088435;28;20533;-72
2023/10/08 10:18:07;;;;;;;5.57;0.63;;;16.80;1.00;;;;;;5089083;28;20474;-71
2023/10/08 10:20:34;;;;;;;6.10;0.88;;;16.80;1.00;;;;;;5086088;28;20459;-71
2023/10/08 10:22:59;;;;;;;6.88;0.98;;;16.70;1.00;;;;;;5088172;28;20405;-71
2023/10/08 10:25:37;;;;;;;6.93;0.63;;;16.70;1.00;;;;;;5086530;28;20425;-71
2023/10/08 10:28:08;;;;;;;5.27;0.77;;;16.70;1.00;;;;;;5088572;28;20403;-71
2023/10/08 10:30:34;;;;;;;4.15;0.60;;;16.70;1.00;;;;;;5078480;28;20402;-70
2023/10/08 10:33:05;;;;;;;5.38;0.80;;;16.70;1.00;;;;;;5078318;28;20413;-71
2023/10/08 10:35:32;;;;;;;7.00;0.73;;;16.80;1.00;;;;;;5078023;28;20538;-70
2023/10/08 10:38:03;;;;;;;5.55;0.73;;;16.90;1.00;;;;;;5088298;28;20412;-71
2023/10/08 10:40:39;;;;;;;5.03;0.80;;;17.10;1.00;;;;;;5079424;28;20425;-71
2023/10/08 10:43:06;;;;;;;6.18;0.68;;;17.40;1.00;;;;;;5088053;28;20907;-71
2023/10/08 10:45:51;;;;;;;5.07;0.70;;;17.50;1.00;;;;;;5087930;28;20409;-71
2023/10/08 10:53:33;;;;;;;5.05;0.70;;;17.40;1.00;;;;;;5079996;28;20968;-70
2023/10/08 10:56:09;;;;;;;7.05;0.80;;;17.30;1.00;;;;;;5087461;28;20409;-71
2023/10/08 10:58:39;;;;;;;4.68;1.00;;;17.20;1.00;;;;;;5087597;28;20454;-71
2023/10/08 11:01:21;;;;;;;6.18;1.02;;;17.20;1.00;;;;;;5086681;28;20434;-71
2023/10/08 11:03:51;;;;;;;4.33;0.93;;;17.20;1.00;;;;;;5088299;28;20443;-70
2023/10/08 11:06:22;;;;;;;7.63;1.08;;;17.10;1.00;;;;;;5079038;28;20481;-72
2023/10/08 11:08:52;;;;;;;3.63;0.83;;;17.10;1.00;;;;;;5087807;28;20421;-72
2023/10/08 11:11:28;;;;;;;5.53;0.87;;;17.20;1.00;;;;;;5078927;28;20412;-71
2023/10/08 11:14:00;;;;;;;4.87;0.60;;;17.40;1.00;;;;;;5087596;28;20880;-71
2023/10/08 11:16:26;;;;;;;6.30;0.97;;;17.70;1.00;;;;;;5087432;28;20768;-71
2023/10/08 11:18:57;;;;;;;6.88;0.70;;;17.70;1.00;;;;;;5087673;28;20401;-71
2023/10/08 11:21:24;;;;;;;5.63;0.90;;;17.80;1.00;;;;;;5087696;28;20425;-71
2023/10/08 11:24:08;;;;;;;5.32;0.70;;;18.00;1.00;;;;;;5088156;28;20410;-71
2023/10/08 11:26:39;;;;;;;5.53;0.80;;;18.50;1.00;;;;;;5087586;28;20406;-71
2023/10/08 11:29:13;;;;;;;6.63;0.90;;;18.70;1.00;;;;;;5086958;28;20425;-71
2023/10/08 11:31:40;;;;;;;6.70;1.00;;;18.80;1.00;;;;;;5087340;28;20406;-71
2023/10/08 11:34:08;;;;;;;4.45;0.80;;;18.70;1.00;;;;;;5087832;28;20764;-71
2023/10/08 11:36:48;;;;;;;4.93;0.70;;;18.70;1.00;;;;;;5120879;27;20881;-71
2023/10/08 11:39:21;;;;;;;5.07;0.80;;;18.80;1.00;;;;;;5090334;28;20433;-72
2023/10/08 11:42:25;;;;;;;7.63;0.80;;;18.90;1.00;;;;;;5091439;28;20421;-71
2023/10/08 11:44:52;;;;;;;6.68;0.88;;;19.10;1.00;;;;;;5088933;28;20405;-72
2023/10/08 11:47:21;;;;;;;6.82;0.93;;;19.20;1.00;;;;;;5091352;28;20405;-71
2023/10/08 11:49:50;;;;;;;7.47;0.90;;;19.00;1.00;;;;;;5091616;28;20816;-71
2023/10/08 11:52:16;;;;;;;6.68;1.02;;;18.90;1.00;;;;;;5091409;28;20402;-71
2023/10/08 11:54:43;;;;;;;6.13;0.70;;;18.80;1.00;;;;;;5091610;28;20437;-71
2023/10/08 11:57:09;;;;;;;4.57;1.10;;;18.60;1.00;;;;;;5091012;28;20412;-71
2023/10/08 11:59:39;;;;;;;4.97;0.88;;;18.40;1.00;;;;;;5091496;28;20418;-71
2023/10/08 12:02:06;;;;;;;6.97;0.80;;;18.30;1.00;;;;;;5087186;28;20429;-71
2023/10/08 12:04:31;;;;;;;6.57;0.80;;;18.10;1.00;;;;;;5091666;28;20764;-71
2023/10/08 12:07:01;;;;;;;5.38;0.80;;;18.00;1.00;;;;;;5091410;28;20397;-71
2023/10/08 12:09:27;;;;;;;8.40;1.25;;;18.00;1.00;;;;;;5090850;28;20934;-71
2023/10/08 12:11:53;;;;;;;5.28;0.90;;;18.00;1.00;;;;;;5090468;28;20402;-71
2023/10/08 12:14:19;;;;;;;5.55;0.80;;;18.00;1.00;;;;;;5072943;28;20951;-71
2023/10/08 12:16:45;;;;;;;6.80;0.70;;;18.00;1.00;;;;;;5091333;28;20440;-71
2023/10/08 12:19:17;;;;;;;7.03;0.85;;;17.90;1.00;;;;;;5089899;28;20527;-71
2023/10/08 12:21:47;;;;;;;7.13;1.27;;;18.00;1.00;;;;;;5090715;28;20433;-71
2023/10/08 12:24:13;;;;;;;7.97;1.15;;;18.00;1.00;;;;;;5090706;28;20915;-71
2023/10/08 12:26:46;;;;;;;8.05;0.90;;;18.00;1.00;;;;;;5089445;28;20444;-71
2023/10/08 12:29:17;;;;;;;7.25;1.08;;;18.10;1.00;;;;;;5091277;28;20895;-71
2023/10/08 12:31:47;;;;;;;7.00;0.70;;;18.00;1.00;;;;;;5089358;28;20968;-71
2023/10/08 12:34:13;;;;;;;6.25;0.90;;;18.00;1.00;;;;;;5093092;28;20468;-68
2023/10/08 12:36:39;;;;;;;7.15;0.93;;;18.00;1.00;;;;;;5094281;28;20915;-71
2023/10/08 12:39:17;;;;;;;4.47;0.70;;;18.10;1.00;;;;;;5086557;28;20394;-71
2023/10/08 12:41:44;;;;;;;6.18;1.00;;;18.40;1.00;;;;;;5082720;28;20944;-69
2023/10/08 12:44:11;;;;;;;5.20;0.80;;;18.70;1.00;;;;;;5093982;28;20664;-70
2023/10/08 12:46:36;;;;;;;6.57;0.95;;;19.40;1.00;;;;;;5092786;28;21020;-70
2023/10/08 12:49:02;;;;;;;6.00;1.02;;;20.10;1.00;;;;;;5095522;28;20398;-70
2023/10/08 12:51:32;;;;;;;5.87;0.90;;;20.80;99.90;;;;;;5090458;28;20429;-71
2023/10/08 12:54:06;;;;;;;5.43;0.60;;;21.20;99.90;;;;;;5088681;28;20419;-71
2023/10/08 12:56:44;;;;;;;5.28;0.80;;;21.40;99.90;;;;;;5080229;28;20963;-71
2023/10/08 12:59:20;;;;;;;4.93;1.05;;;21.20;99.90;;;;;;5089655;28;20824;-71
2023/10/08 13:01:50;;;;;;;6.90;0.80;;;20.90;99.90;;;;;;5090475;28;20947;-72
2023/10/08 13:04:27;;;;;;;5.85;0.68;;;20.60;99.90;;;;;;5085982;28;20482;-71
2023/10/08 13:07:00;;;;;;;5.63;0.98;;;20.80;99.90;;;;;;5090053;28;20417;-72
2023/10/08 13:09:26;;;;;;;5.32;0.80;;;21.00;99.90;;;;;;5091354;28;20413;-72
2023/10/08 13:11:52;;;;;;;7.77;1.07;;;20.80;99.90;;;;;;5090337;28;20484;-71
2023/10/08 13:14:17;;;;;;;8.65;0.98;;;20.60;99.90;;;;;;5094487;28;20402;-72
2023/10/08 13:16:45;;;;;;;6.17;1.20;;;20.30;99.90;;;;;;5089904;28;20990;-71
2023/10/08 13:19:11;;;;;;;6.03;1.00;;;19.90;99.90;;;;;;5089945;28;20414;-70
2023/10/08 13:21:37;;;;;;;6.35;0.98;;;19.70;99.90;;;;;;5089647;28;20430;-71
2023/10/08 13:24:05;;;;;;;8.85;0.88;;;19.60;99.90;;;;;;5089797;28;20409;-70
2023/10/08 13:26:31;;;;;;;6.15;0.88;;;19.40;99.90;;;;;;5088349;28;20911;-71
2023/10/08 13:29:00;;;;;;;6.43;0.90;;;19.40;99.90;;;;;;5090574;28;20848;-71
2023/10/08 13:31:27;;;;;;;6.57;1.15;;;19.30;99.90;;;;;;5092142;28;20409;-71
2023/10/08 13:33:56;;;;;;;5.00;0.88;;;19.10;99.90;;;;;;5089988;28;20402;-73
2023/10/08 13:36:22;;;;;;;4.68;1.13;;;19.00;99.90;;;;;;5093950;28;20415;-71
2023/10/08 13:38:47;;;;;;;7.50;1.00;;;19.00;99.90;;;;;;5089483;28;20402;-70
2023/10/08 13:41:17;;;;;;;4.63;0.80;;;19.00;99.90;;;;;;5077602;28;20498;-72
2023/10/08 13:43:47;;;;;;;5.33;0.70;;;19.00;99.90;;;;;;5083756;28;20738;-72
2023/10/08 13:46:16;;;;;;;5.32;0.95;;;18.90;99.90;;;;;;5087688;28;20480;-72
2023/10/08 13:48:50;;;;;;;5.47;0.77;;;18.90;99.90;;;;;;5088063;28;20905;-72
2023/10/08 13:51:25;;;;;;;5.95;1.00;;;18.90;99.90;;;;;;5085253;28;20818;-72
2023/10/08 13:54:03;;;;;;;3.97;0.73;;;18.80;99.90;;;;;;5086407;28;20724;-72
2023/10/08 13:56:31;;;;;;;4.68;0.68;;;18.70;99.90;;;;;;5091478;28;20421;-73
2023/10/08 13:59:14;;;;;;;4.63;0.73;;;18.50;99.90;;;;;;5084935;28;20401;-72
2023/10/08 14:01:46;;;;;;;5.17;0.70;;;18.40;99.90;;;;;;5086356;28;20433;-73
2023/10/08 14:04:17;;;;;;;7.15;1.10;;;18.20;99.90;;;;;;5087708;28;20410;-72
2023/10/08 14:06:47;;;;;;;4.95;1.02;;;18.00;99.90;;;;;;5083253;28;20934;-72
2023/10/08 14:09:20;;;;;;;4.07;0.70;;;17.90;99.90;;;;;;5089276;28;20493;-71
2023/10/08 14:11:46;;;;;;;6.20;0.85;;;17.80;99.90;;;;;;5086280;28;20415;-71
2023/10/08 14:14:12;;;;;;;5.25;0.70;;;17.70;1.00;;;;;;5085705;28;20423;-71
2023/10/08 14:16:46;;;;;;;6.18;1.10;;;17.60;1.00;;;;;;5084846;28;20398;-71
2023/10/08 14:19:14;;;;;;;7.87;1.10;;;17.60;1.00;;;;;;5089453;28;20398;-71
2023/10/08 14:21:53;;;;;;;6.95;0.95;;;17.50;1.00;;;;;;5088771;28;20544;-71